Michael Reid

Olheiro-Chefe - Leicester City
6 Jan 2028
Quinta-feira
Processo

Personalidade

Adaptabilidade (16) Ambição (4) Controvérsia (14) Lealdade (18) Pressão (3) Profissionalismo (10) Espírito Esportivo (4) Temperamento (19)

Perfil

Estilo de Treinamento Democrático
Licença Nacional B
Determinação 13
Gestão de Pessoas 6
Motivação 13
Disciplina 4
Satisfação no Trabalho
100%
Fadiga
0%
Função Olheiro-Chefe
Salário 66.3K p/s
Contrato 14.03.2030

Desempenho

Comportamento Bom
Eficácia do Treinamento
50%
Desenvolvimento do Jogador
35%
Prevenção de Lesões
60%
Implementação Tática
35%

Eventos Recentes

Participou de uma reunião de recrutamento agora
Recomendou um alvo de transferência agora
Participou de uma reunião de recrutamento agora
Recomendou um alvo de transferência agora
Apresentou um dossiê à direção 7d atrás
Apresentou um dossiê à direção 7d atrás
Apresentou um dossiê à direção 7d atrás
Apresentou um dossiê à direção 7d atrás

Monitorando agora

237
Jogador Clube Status Habilidade Confiança Observado Última observação Último voto
Julio Enciso Bayer Leverkusen Negociando 142 / 146 68% 1 01.01.2028 -
Dastan Sätpayev Chelsea Negociando 129 / 132 76% 1 01.01.2028 -
Caleb Yirenkyi Coventry City Ativo 145 / 151 40% 14 31.12.2027 -
Tobias Moi Bodo/Glimt Ativo 115 / 105 40% 3 31.12.2027 -
Dmitry Pestryakov Dinamo Moscow Ativo 114 / 126 40% 6 31.12.2027 -
Josh King Chelsea Ativo 147 / 151 40% 10 09.12.2027 -
Fillip Jenssen Riise Stabaek Ativo 102 / 109 40% 3 09.12.2027 -
Axel Tape Bayer Leverkusen Ativo 133 / 141 40% 2 09.12.2027 -
Hervin Goyes Deportivo Pasto Ativo 111 / 107 40% 5 06.12.2027 -
Alejandro Almaraz Nueva Chicago Ativo 101 / 120 40% 1 06.12.2027 -
Olaniyi Saheed Kwara United Ativo 86 / 109 40% 9 05.12.2027 -
Rivaldo Grobler Free State Stars Ativo 105 / 99 40% 5 05.12.2027 -
Esquerdinha Shrewsbury Town Ativo 123 / 127 40% 3 05.12.2027 -
Ayden Heaven Luton Town Ativo 152 / 156 40% 12 04.12.2027 -
Tiago Parente Benfica Ativo 102 / 109 40% 5 04.12.2027 -
Nicolas Sport Recife Ativo 102 / 102 40% 4 04.12.2027 -
Gopolang Taunyane CR Belouizdad Ativo 100 / 108 40% 4 02.12.2027 -
Trey Nyoni Rotherham United Ativo 135 / 143 40% 4 02.12.2027 -
Jofre Torrents Ajax Ativo 135 / 139 40% 4 30.11.2027 -
Lucas Bergvall Tottenham Ativo 147 / 156 40% 3 30.11.2027 -
Josh Nichols Tranmere Rovers Ativo 120 / 131 40% 5 30.11.2027 -
Mikkel Hope Haugesund Ativo 110 / 102 40% 6 29.11.2027 -
Bahia Criciuma Ativo 114 / 121 40% 2 28.11.2027 -
Honest Ahanor Atalanta Ativo 133 / 143 40% 11 26.11.2027 -
Ronan Kpakio Cardiff City Ativo 125 / 124 40% 3 26.11.2027 -
Joel Ezra Enyimba Ativo 86 / 96 40% 13 23.11.2027 -
Mauro Carrizo Atlético Tucumán Ativo 102 / 102 40% 8 22.11.2027 -
Julián Bazán Philadelphia Union Ativo 119 / 124 40% 13 19.11.2027 -
Christos Mouzakitis Hull City Ativo 131 / 139 40% 16 17.11.2027 -
Gideon Manaseh Ikorodu City Ativo 85 / 101 40% 4 17.11.2027 -
Chris Rigg Sunderland Ativo 141 / 139 40% 7 15.11.2027 -
Colin Guske Orlando City Ativo 88 / 104 40% 6 14.11.2027 -
Frankie Westfield Philadelphia Union Ativo 106 / 104 40% 7 13.11.2027 -
Jovan Milosavljević Kalmar FF Ativo 95 / 109 40% 2 11.11.2027 -
Celías Ingenthron Vélez Ativo 112 / 120 40% 3 10.11.2027 -
Ignacio Fernández Boston River Ativo 94 / 102 40% 4 07.11.2027 -
Uche Jaguar Kwara United Ativo 94 / 88 40% 2 07.11.2027 -
Tyson Pearce St. Louis CITY SC Ativo 97 / 98 40% 4 07.11.2027 -
Giovanni Leoni Bradford City Ativo 140 / 148 40% 6 06.11.2027 -
Harbor Miller LA Galaxy Ativo 96 / 112 40% 6 04.11.2027 -
Drew Baiera New York City Ativo 103 / 110 40% 5 03.11.2027 -
Aiden Hezarkhani Real Salt Lake Ativo 99 / 93 40% 4 24.10.2027 -
Jonny Shore New York City Ativo 99 / 106 40% 1 20.10.2027 -
José Correa Deportivo Tachira Ativo 98 / 102 40% 4 17.10.2027 -
Archie Gray Derby County Ativo 152 / 160 40% 3 16.10.2027 -
Leny Yoro Manchester United Ativo 151 / 153 40% 6 09.10.2027 -
Jens Hjertø-Dahl Hull City Ativo 126 / 137 40% 2 06.10.2027 -
Teo Rodríguez Pagano River Plate Ativo 114 / 129 40% 2 04.10.2027 -
Malick Yalcouyé Brighton Ativo 127 / 140 40% 2 27.09.2027 -
Emiliano Bértoli Patronato Ativo 93 / 105 40% 2 26.09.2027 -
Eliás Montiel Werder Bremen Ativo 138 / 134 40% 2 25.09.2027 -
Nika Kvaratskhelia Tskhinvali Ativo 87 / 98 40% 1 17.09.2027 -
Juan Morán Godoy Cruz Ativo 111 / 119 40% 1 16.09.2027 -
Tyler Hall Inter Miami CF Ativo 101 / 100 40% 1 12.09.2027 -
Kaick Minnesota United FC Ativo 107 / 117 40% 1 30.08.2027 -
Baye Coulibaly Charlotte Football Club Ativo 95 / 104 40% 1 29.08.2027 -
Diego Vargas San Marcos de Arica Ativo 85 / 95 40% 1 24.08.2027 -
Davide Bartesaghi AC Milan Ativo 141 / 140 40% 3 20.08.2027 -
Eddy Kouadio Crotone Ativo 113 / 115 40% 1 20.08.2027 -
Nazareno Roselli Defensa y Justicia Ativo 105 / 119 40% 1 20.08.2027 -
Christ Inao Oulaï Fiorentina Ativo 136 / 148 40% 4 16.08.2027 -
Leonardo Mendicino Bari Ativo 117 / 125 40% 1 16.08.2027 -
Ricky Atletico Venezuela Ativo 105 / 92 40% 1 16.08.2027 -
Joel McGregor Swindon Town Ativo 93 / 108 40% 2 09.08.2027 -
Daniel Kelly Oxford United Ativo 117 / 129 40% 1 09.08.2027 -
Tiago Freitas Benfica Ativo 119 / 128 40% 3 07.08.2027 -
Ernie Weaver AFC Wimbledon Ativo 116 / 116 40% 5 04.08.2027 -
Matías Gómez Granada Ativo 113 / 128 40% 2 01.08.2027 -
Martim Cunha Porto Ativo 108 / 109 40% 2 31.07.2027 -
Bernardo Lima Porto Ativo 97 / 117 40% 3 29.07.2027 -
Zane Albarus Cambridge United Ativo 99 / 102 40% 4 29.07.2027 -
Keagan Tau Ajax Cape Town Ativo 87 / 113 40% 2 27.07.2027 -
Juan Giménez Celta Ativo 116 / 130 40% 2 22.07.2027 -
Lewis Miley Chelsea Ativo 143 / 156 40% 2 22.07.2027 -
Jan Bürger Gillingham Ativo 114 / 124 40% 1 22.07.2027 -
Sascha Britschgi Padova Ativo 125 / 130 40% 1 20.07.2027 -
Kazunari Kita Real Sociedad Ativo 105 / 108 40% 1 19.07.2027 -
Adam Bakoune Ospitaletto Ativo 100 / 106 40% 1 14.07.2027 -
Finley McAllister Grimsby Town Ativo 95 / 100 40% 2 13.07.2027 -
Riley Owen Trento Ativo 100 / 111 40% 1 10.07.2027 -
Leandro Martins Benfica Ativo 102 / 104 40% 2 09.07.2027 -
Darryl Bakola Padova Ativo 103 / 127 40% 2 08.07.2027 -
Lwanda Mbanjwa Maritzburg United Ativo 86 / 102 40% 1 22.06.2027 -
Amaury Morales Pumas UNAM Ativo 124 / 128 40% 1 22.06.2027 -
Baylee Dipepa Norwich City Ativo 98 / 120 40% 1 22.06.2027 -
Facundo Torres LOSC Lille Negociando 134 / 134 67% 1 01.06.2027 -
Luiz Henrique West Ham United Ativo 142 / 143 68% 1 01.06.2027 Aprovar
Soungoutou Magassa West Ham United Ativo 132 / 141 40% 4 30.05.2027 -
Guille Rosas Gijón Ativo 146 / 142 40% 1 30.05.2027 -
Callum Doyle Wrexham Ativo 126 / 127 40% 8 29.05.2027 -
Welington Southampton Ativo 136 / 133 40% 7 29.05.2027 -
Alfie Doughty Millwall Ativo 122 / 122 40% 3 29.05.2027 -
Ibrahim Maza Bayer Leverkusen Ativo 143 / 146 40% 1 29.05.2027 -
Nicolò Rovella Lazio Ativo 155 / 148 40% 3 26.05.2027 -
Adam Wharton Crystal Palace Ativo 157 / 153 40% 8 26.05.2027 -
Milan van Ewijk Mansfield Town Ativo 127 / 131 40% 5 25.05.2027 -
Harry Clarke Preston Ativo 133 / 123 40% 6 23.05.2027 -
Habib Diarra Sunderland Ativo 148 / 139 40% 4 23.05.2027 -
Luke McNally Bristol City Ativo 134 / 129 40% 3 22.05.2027 -
Adam Randell Bristol City Ativo 132 / 122 40% 5 22.05.2027 -
Yehor Yarmoliuk Brentford Ativo 150 / 156 40% 11 21.05.2027 -
Bobby Thomas Coventry City Ativo 140 / 131 40% 5 21.05.2027 -
Ilario Monterisi Frosinone Ativo 125 / 127 40% 1 21.05.2027 -
Lewis Ferguson Bologna Ativo 142 / 148 40% 6 20.05.2027 -
Aaron Hickey Brentford Ativo 144 / 148 40% 4 20.05.2027 -
Murillo Nottingham Forest Ativo 153 / 154 40% 4 19.05.2027 -
Juan Miranda Bologna Ativo 141 / 134 40% 1 19.05.2027 -
Nuno Tavares Lazio Ativo 149 / 147 40% 1 19.05.2027 -
Ousmane Diomande Nottingham Forest Ativo 152 / 156 40% 11 15.05.2027 -
Shea Charles Southampton Ativo 140 / 136 40% 11 14.05.2027 -
Ronnie Edwards Queens Park Rangers Ativo 130 / 124 40% 1 14.05.2027 -
Alessandro Buongiorno Sassuolo Ativo 151 / 159 40% 6 13.05.2027 -
Florentino Luís Ipswich Town Ativo 144 / 135 40% 10 12.05.2027 -
Juanlu Bournemouth Ativo 140 / 156 40% 5 11.05.2027 -
Max Bird Birmingham Ativo 133 / 133 40% 6 11.05.2027 -
Oumar Solet Udinese Ativo 143 / 145 40% 2 11.05.2027 -
Nathan Collins Brentford Ativo 154 / 141 40% 8 10.05.2027 -
Ethan Galbraith Swansea City Ativo 135 / 132 40% 4 08.05.2027 -
Ryan Sessegnon Fulham Ativo 144 / 142 40% 7 04.05.2027 -
Jacques Ekomié Wrexham Ativo 137 / 136 40% 5 02.05.2027 -
Derry Murkin Derby County Ativo 131 / 132 40% 6 30.04.2027 -
Quinten Timber Crystal Palace Ativo 158 / 151 40% 6 29.04.2027 -
Andrea Carboni Monza Ativo 132 / 125 40% 2 26.04.2027 -
Lucas Da Cunha Como Ativo 151 / 139 40% 2 25.04.2027 -
Dennis Cirkin Queens Park Rangers Ativo 120 / 126 40% 1 25.04.2027 -
Imrân Louza Watford Ativo 135 / 133 40% 3 21.04.2027 -
Óscar Mingueza Crystal Palace Ativo 152 / 150 40% 3 20.04.2027 -
Noah Sadiki Sunderland Ativo 145 / 144 40% 6 19.04.2027 -
Bosun Lawal Stoke City Ativo 126 / 127 40% 2 19.04.2027 -
Tariq Lamptey Queens Park Rangers Ativo 130 / 134 40% 1 07.04.2027 -
Malick Thiaw West Ham United Ativo 155 / 157 40% 3 05.04.2027 -
Leif Davis Ipswich Town Ativo 131 / 131 40% 4 03.04.2027 -
Christian Krasnodar Ativo 127 / 143 40% 4 21.03.2027 -
Toby Collyer West Bromwich Albion Ativo 137 / 127 40% 2 20.03.2027 -
Kristoffer Lund Birmingham Ativo 120 / 125 40% 1 14.03.2027 -
Aidan Morris Middlesbrough Ativo 124 / 128 40% 3 13.03.2027 -
Adrien Truffert Bournemouth Ativo 145 / 149 40% 5 27.02.2027 -
Japhet Tanganga Sheffield United Ativo 138 / 133 40% 2 20.02.2027 -
André Wolverhampton Ativo 146 / 141 40% 1 09.02.2027 -
Nadir Zortea Bologna Ativo 140 / 137 40% 1 07.02.2027 -
Gabriel Gudmundsson Leeds United Ativo 136 / 146 40% 1 07.02.2027 -
Michael Kayode Brentford Ativo 145 / 148 40% 1 03.02.2027 -
Will Lankshear Middlesbrough Ativo 126 / 125 40% 3 04.01.2027 -
Rocco Vata Watford Ativo 122 / 120 40% 2 04.01.2027 -
Miloš Jovičić Zabbar St. Patrick Ativo 97 / 97 40% 2 04.01.2027 -
Erick Sánchez OGC Nice Negociando 139 / 139 66% 1 01.01.2027 Aprovar
Christos Zafeiris Tigres Ativo 137 / 141 91% 1 01.01.2027 Aprovar
Roberto Alvarado Monaco Negociando 139 / 139 66% 1 01.01.2027 -
Reda Khadra Qarabag Ativo 128 / 126 40% 3 31.12.2026 -
Tom Fellows Southampton Ativo 125 / 131 40% 2 31.12.2026 -
Carlos Vicente Birmingham Ativo 137 / 144 40% 3 30.12.2026 -
Jørgen Strand Larsen Crystal Palace Ativo 144 / 146 40% 5 28.12.2026 -
Armando Broja Burnley Ativo 130 / 136 40% 1 28.12.2026 -
Manfred Ugalde Spartak Moscow Ativo 127 / 139 40% 6 27.12.2026 -
Callum Hudson-Odoi Nottingham Forest Ativo 150 / 150 40% 3 27.12.2026 -
Dango Ouattara Brentford Ativo 141 / 139 40% 8 25.12.2026 -
Georginio Rutter Brighton Ativo 145 / 151 40% 5 25.12.2026 -
Wilson Isidor Sunderland Ativo 142 / 139 40% 4 23.12.2026 -
Breel Embolo Atlanta United FC Ativo 134 / 144 40% 5 20.12.2026 -
Sayed Abu Farchi Maccabi Tel Aviv Ativo 115 / 125 40% 1 19.12.2026 -
Matías Fernández-Pardo Newcastle United Ativo 146 / 149 40% 3 18.12.2026 -
Marcelo Allende Mamelodi Sundowns Ativo 127 / 138 40% 3 17.12.2026 -
Matt O'Riley Brighton Ativo 143 / 151 40% 3 17.12.2026 -
Callum O'Hare Sheffield United Ativo 128 / 133 40% 3 17.12.2026 -
Andrea Pinamonti Lazio Ativo 142 / 138 40% 2 17.12.2026 -
Jean-Philippe Mateta Crystal Palace Ativo 153 / 143 40% 6 14.12.2026 -
Joshua Zirkzee Manchester United Ativo 145 / 148 40% 2 14.12.2026 -
Ilyas Ansah Hull City Ativo 132 / 133 40% 1 13.12.2026 -
Martín Ojeda Orlando City Ativo 144 / 130 40% 7 12.12.2026 -
Zian Flemming Ipswich Town Ativo 131 / 131 40% 5 12.12.2026 -
Luis Vázquez Birmingham Ativo 132 / 123 40% 3 12.12.2026 -
Joe Gelhardt Hull City Ativo 129 / 129 40% 4 09.12.2026 -
Dominic Calvert-Lewin Leeds United Ativo 138 / 146 40% 4 09.12.2026 -
Gonzalo Fulham Ativo 140 / 146 40% 5 06.12.2026 -
Álvaro Rodríguez Bournemouth Ativo 132 / 143 40% 1 06.12.2026 -
Sorba Thomas Stoke City Ativo 137 / 133 40% 1 05.12.2026 -
Ismaïla Sarr Crystal Palace Ativo 152 / 142 40% 4 03.12.2026 -
Mohamed-Ali Cho Hull City Ativo 132 / 131 40% 1 01.12.2026 -
Gabriel Jesus Barcelona Ativo 157 / 160 40% 3 30.11.2026 -
Giacomo Raspadori Atalanta Ativo 145 / 150 40% 2 30.11.2026 -
Jason Knight Bristol City Ativo 127 / 134 40% 1 30.11.2026 -
Dara O'Shea Ipswich Town Ativo 138 / 140 40% 1 30.11.2026 -
Rico Lewis Manchester City Ativo 144 / 148 40% 1 26.11.2026 -
Santiago Rodríguez Columbus Crew Ativo 136 / 133 40% 1 25.11.2026 -
Wessam Abou Ali Columbus Crew Ativo 135 / 132 40% 4 23.11.2026 -
Vivaldo Semedo Watford Ativo 113 / 130 40% 1 22.11.2026 -
Bamba Dieng Crvena Zvezda Ativo 132 / 133 40% 2 15.11.2026 -
Ruben van Bommel Ferencvaros Ativo 137 / 130 40% 1 14.11.2026 -
James Garner Everton Ativo 147 / 149 40% 1 14.11.2026 -
Antonio Galeano Remo Stars Ativo 121 / 123 40% 2 13.11.2026 -
Conrad Wallem Austria Wien Ativo 135 / 123 40% 3 11.11.2026 -
Xavi Simons Tottenham Ativo 150 / 155 40% 2 11.11.2026 -
Yan Diomandé Real Madrid Ativo 156 / 149 40% 1 10.11.2026 -
Amine Adli Bournemouth Ativo 143 / 147 40% 1 07.11.2026 -
Iván Angulo Orlando City Ativo 117 / 129 40% 1 07.11.2026 -
Erik Prekop Gornik Zabrze Ativo 135 / 122 40% 1 05.11.2026 -
Carlos Alcaraz Everton Ativo 145 / 142 40% 1 04.11.2026 -
Thiago Brentford Ativo 146 / 144 40% 5 31.10.2026 -
Barış Alper Yılmaz Galatasaray Ativo 148 / 145 40% 3 30.10.2026 -
Dávid Strelec Middlesbrough Ativo 131 / 143 40% 2 30.10.2026 Mais informações
Chineme Chinonso Ikorodu City Ativo 91 / 106 40% 1 29.10.2026 -
Darren Yapi Colorado Rapids Ativo 114 / 106 40% 1 29.10.2026 -
Mikkel Damsgaard Brentford Ativo 141 / 139 40% 1 27.10.2026 -
Bénie Traoré New York City Ativo 135 / 132 40% 1 27.10.2026 -
Diego Luna Real Salt Lake Ativo 128 / 122 40% 2 26.10.2026 -
Cody Gakpo Liverpool Ativo 161 / 155 40% 2 26.10.2026 -
Romelu Castagne KV Oostende Ativo 133 / 137 40% 4 23.10.2026 -
Djordje Mihailović Toronto FC Ativo 129 / 129 40% 2 23.10.2026 -
Isaiah Jones Luton Town Ativo 126 / 116 40% 1 23.10.2026 -
Petar Musa Adana Demirspor Ativo 134 / 129 40% 3 18.10.2026 -
Nicolò Tresoldi Club Brugge Ativo 135 / 131 40% 6 17.10.2026 Observar
Gabriel Pirani San Diego Football Club Ativo 141 / 127 40% 1 15.10.2026 -
Jesus Ferreira Seattle Sounders Ativo 125 / 134 40% 2 13.10.2026 -
Hannes Wolf New York City Ativo 121 / 120 40% 1 10.10.2026 -
Ozziel Herrera Tigres Ativo 134 / 133 40% 1 06.10.2026 -
Diego Rossi Monterrey Ativo 129 / 130 40% 1 05.10.2026 -
Noah Okafor Leeds United Ativo 147 / 137 40% 3 02.10.2026 -
Federico Chiesa Liverpool Ativo 159 / 157 40% 2 30.09.2026 -
Bryan Ramírez FC Cincinnati Ativo 126 / 122 40% 2 29.09.2026 -
Kelvin Yeboah Minnesota United FC Ativo 123 / 129 40% 1 29.09.2026 -
Juan Manuel Sanabria Real Salt Lake Ativo 120 / 127 40% 1 29.09.2026 -
Eddie Nketiah Crystal Palace Ativo 135 / 140 40% 2 26.09.2026 -
Sam Surridge Nashville SC Ativo 122 / 139 40% 1 21.09.2026 -
Adnan Courtois KV Oostende Ativo 137 / 138 40% 1 20.09.2026 -
Facundo Mura Inter Miami CF Ativo 118 / 123 40% 1 20.09.2026 -
Marco Pašalić Orlando City Ativo 137 / 121 40% 1 18.09.2026 -
Alhassan Yusuf New England Revolution Ativo 132 / 121 40% 2 13.09.2026 -
Ho-yeon Jung Minnesota United FC Ativo 114 / 119 40% 1 13.09.2026 -
Zeki Amdouni Burnley Ativo 134 / 132 40% 1 12.09.2026 -
Kein Sato FC Tokyo Ativo 135 / 137 40% 1 11.09.2026 -
Duncan McGuire Houston Dynamo Ativo 125 / 114 40% 1 10.09.2026 -
Tomás Chancalay Minnesota United FC Ativo 120 / 135 40% 1 10.09.2026 -
Brian Brobbey Sunderland Ativo 135 / 147 40% 1 08.09.2026 -
Riqui Puig LA Galaxy Ativo 123 / 139 40% 1 08.09.2026 -
Israel Reyes CSKA Moscow Ativo 137 / 137 68% 1 17.08.2026 Aprovar
Dom Ballard Leyton Orient Ativo 120 / 119 40% 1 03.08.2026 -
Archie Goodwin Charlotte Football Club Ativo 108 / 102 40% 1 03.08.2026 -